Terminal Aerodrome Forecast
Issued by NWS Missoula, MT

Home | Current Version | Previous Version | Text Only | Print | Product List | Glossary On
Versions: 1 2 3 4 5 6 7 8 9 10 11 12 13 14 15
000
FTUS45 KMSO 281120
TAFBTM
TAF
KBTM 281120Z 2812/2912 15003KT P6SM BKN050
     FM282100 20012G22KT P6SM SCT120
     FM290200 19006KT P6SM SCT150=

USA.gov is the U.S. government's official web portal to all federal, state and local government web resources and services.